Time;durP1;ratioP1;P1;durP2;ratioP2;P2;SDS_P1;SDS_P2;PMS_P1;PMS_P2;Temp;Humidity;BMP_temperature;BMP_pressure;BME280_temperature;BME280_humidity;BME280_pressure;Samples;Min_cycle;Max_cycle;Signal;HPM_P1;HPM_P2
2021/08/13 00:01:38;;;;;;;12.10;11.10;;;;;;;27.60;49.65;95777.06;4988379;28;20049;-66
2021/08/13 00:04:04;;;;;;;12.50;11.40;;;;;;;27.52;49.61;95762.66;4981483;28;20023;-66
2021/08/13 00:06:30;;;;;;;12.98;11.80;;;;;;;27.58;49.37;95777.47;4988621;28;20026;-66
2021/08/13 00:08:55;;;;;;;12.48;11.48;;;;;;;27.66;49.59;95783.69;4988828;28;20046;-66
2021/08/13 00:11:21;;;;;;;13.60;12.40;;;;;;;27.65;49.04;95768.47;4989171;28;20039;-68
2021/08/13 00:13:46;;;;;;;12.93;11.57;;;;;;;27.48;49.43;95751.75;4989080;28;20061;-67
2021/08/13 00:16:11;;;;;;;13.07;11.68;;;;;;;27.63;48.97;95776.25;4971505;28;20649;-66
2021/08/13 00:18:37;;;;;;;12.23;11.13;;;;;;;27.48;49.37;95750.97;4994851;28;20046;-66
2021/08/13 00:21:02;;;;;;;13.38;11.98;;;;;;;27.46;49.30;95754.09;4993056;28;20640;-65
2021/08/13 00:23:27;;;;;;;12.55;11.55;;;;;;;27.44;49.45;95766.63;4992698;28;20066;-67
2021/08/13 00:25:53;;;;;;;14.70;12.00;;;;;;;27.33;49.63;95761.22;4992522;28;20038;-66
2021/08/13 00:28:18;;;;;;;13.95;12.60;;;;;;;27.22;50.21;95763.19;4992780;28;20408;-65
2021/08/13 00:30:44;;;;;;;12.27;11.27;;;;;;;27.26;49.96;95794.00;4994842;28;20457;-66
2021/08/13 00:33:09;;;;;;;14.27;11.63;;;;;;;27.11;49.99;95784.31;4992047;28;20038;-66
2021/08/13 00:35:34;;;;;;;11.77;10.65;;;;;;;27.08;50.38;95774.97;4974815;28;20070;-66
2021/08/13 00:38:00;;;;;;;11.65;10.75;;;;;;;27.08;50.17;95777.69;4974170;28;20039;-66
2021/08/13 00:40:25;;;;;;;11.80;10.80;;;;;;;27.03;49.85;95758.19;4992315;28;20492;-66
2021/08/13 00:42:51;;;;;;;12.05;10.98;;;;;;;27.13;49.86;95754.66;4976921;28;20034;-66
2021/08/13 00:45:16;;;;;;;12.00;10.90;;;;;;;27.23;49.44;95756.56;4975176;28;20512;-66
2021/08/13 00:47:42;;;;;;;11.15;10.15;;;;;;;27.31;49.34;95762.78;4973752;28;20624;-66
2021/08/13 00:50:08;;;;;;;11.65;10.60;;;;;;;27.21;49.26;95750.72;4974839;28;20399;-66
2021/08/13 00:52:33;;;;;;;11.65;10.55;;;;;;;27.25;49.34;95776.06;4974946;28;20034;-66
2021/08/13 00:54:59;;;;;;;11.80;10.70;;;;;;;27.15;49.50;95768.69;4994265;28;20417;-66
2021/08/13 00:57:24;;;;;;;11.07;10.18;;;;;;;27.14;49.56;95770.66;4974378;28;20064;-66
2021/08/13 00:59:50;;;;;;;10.43;9.63;;;;;;;27.01;49.54;95763.25;4974794;28;20039;-66
2021/08/13 01:02:16;;;;;;;11.30;10.20;;;;;;;26.60;50.59;95759.06;4991580;28;20046;-66
2021/08/13 01:04:41;;;;;;;13.32;10.35;;;;;;;26.90;49.94;95768.75;4992053;28;20109;-66
2021/08/13 01:07:07;;;;;;;11.02;10.13;;;;;;;26.93;50.20;95792.53;4991599;28;20030;-65
2021/08/13 01:09:35;;;;;;;10.27;9.52;;;;;;;26.62;51.01;95807.78;4994305;28;20064;-67
2021/08/13 01:12:15;;;;;;;10.10;9.30;;;;;;;26.59;50.99;95789.47;4992670;28;20408;-66
2021/08/13 01:14:53;;;;;;;12.65;9.63;;;;;;;26.76;50.02;95806.97;4975338;28;20062;-66
2021/08/13 01:17:20;;;;;;;11.13;10.07;;;;;;;27.00;50.00;95810.84;4991118;28;20471;-66
2021/08/13 01:20:07;;;;;;;10.45;9.48;;;;;;;27.02;49.56;95822.91;4991782;28;20050;-66
2021/08/13 01:22:51;;;;;;;10.88;9.85;;;;;;;27.06;49.61;95836.56;4991785;28;20038;-66
2021/08/13 01:25:19;;;;;;;10.38;9.35;;;;;;;25.63;52.74;95839.91;4974375;28;20045;-65
2021/08/13 01:27:47;;;;;;;9.75;8.85;;;;;;;26.50;50.80;95841.69;4974945;28;20402;-66
2021/08/13 01:30:16;;;;;;;9.98;9.10;;;;;;;26.29;51.30;95845.16;4991873;28;20092;-66
2021/08/13 01:32:45;;;;;;;11.07;9.93;;;;;;;25.65;52.93;95839.56;4991477;28;20034;-65
2021/08/13 01:35:42;;;;;;;10.57;9.48;;;;;;;25.42;53.99;95856.97;4991298;28;20089;-66
2021/08/13 01:38:22;;;;;;;10.02;9.23;;;;;;;25.25;54.44;95841.34;4979800;28;20070;-66
2021/08/13 01:40:49;;;;;;;10.48;9.57;;;;;;;26.11;52.28;95852.56;4958188;28;20069;-66
2021/08/13 01:43:23;;;;;;;11.93;9.85;;;;;;;26.35;51.42;95832.69;4974096;28;20037;-66
2021/08/13 01:45:50;;;;;;;12.07;10.88;;;;;;;26.65;50.72;95839.72;4993055;28;20034;-67
2021/08/13 01:48:16;;;;;;;11.95;10.85;;;;;;;26.61;51.07;95819.84;4991414;28;20636;-66
2021/08/13 01:50:43;;;;;;;10.85;9.95;;;;;;;26.66;50.18;95822.19;4991225;28;20045;-66
2021/08/13 01:53:10;;;;;;;10.70;9.80;;;;;;;26.53;51.73;95846.38;4973966;28;20382;-66
2021/08/13 01:55:36;;;;;;;11.93;10.27;;;;;;;26.57;51.94;95849.88;4990879;28;20054;-66
2021/08/13 01:58:03;;;;;;;11.10;10.20;;;;;;;26.81;50.65;95839.31;4993084;28;20027;-66
2021/08/13 02:00:29;;;;;;;11.75;10.65;;;;;;;26.85;50.74;95831.91;4991262;28;20047;-66
2021/08/13 02:02:56;;;;;;;11.07;10.27;;;;;;;26.86;50.50;95850.63;4990672;28;20129;-66
2021/08/13 02:05:27;;;;;;;12.23;11.20;;;;;;;26.14;52.34;95819.81;4973457;28;20045;-71
2021/08/13 02:07:54;;;;;;;13.27;11.98;;;;;;;26.57;51.92;95858.06;4990956;28;20050;-61
2021/08/13 02:10:20;;;;;;;12.52;11.25;;;;;;;26.52;51.60;95838.59;4991354;28;20030;-61
2021/08/13 02:12:46;;;;;;;11.88;10.95;;;;;;;26.72;51.14;95850.66;4993420;28;20066;-61
2021/08/13 02:15:12;;;;;;;12.25;11.15;;;;;;;26.63;51.21;95842.09;4991243;28;20516;-61
2021/08/13 02:17:41;;;;;;;13.70;12.35;;;;;;;26.74;51.51;95859.22;4989812;28;20504;-61
2021/08/13 02:20:13;;;;;;;11.93;11.02;;;;;;;26.64;51.33;95840.91;4990703;28;20046;-61
2021/08/13 02:22:39;;;;;;;12.15;11.15;;;;;;;26.70;51.35;95856.50;4990775;28;20478;-61
2021/08/13 02:25:05;;;;;;;12.90;11.60;;;;;;;26.70;51.47;95859.22;4992311;28;20098;-60
2021/08/13 02:27:34;;;;;;;13.13;12.00;;;;;;;26.69;51.38;95863.13;4989294;28;20046;-61
2021/08/13 02:29:59;;;;;;;13.07;11.98;;;;;;;26.24;51.79;95798.41;4990372;28;20042;-60
2021/08/13 02:32:27;;;;;;;13.43;12.25;;;;;;;26.66;51.69;95854.94;4990042;28;20069;-60
2021/08/13 02:34:53;;;;;;;12.60;11.55;;;;;;;26.22;51.04;95777.00;4990537;28;20046;-61
2021/08/13 02:37:42;;;;;;;12.52;11.73;;;;;;;26.62;51.27;95860.41;4972720;28;20030;-61
2021/08/13 02:40:12;;;;;;;13.85;12.55;;;;;;;26.58;51.46;95856.91;4990461;28;20106;-61
2021/08/13 02:42:41;;;;;;;14.45;13.05;;;;;;;26.52;51.30;95860.41;4992311;28;20113;-60
2021/08/13 02:45:08;;;;;;;14.70;12.82;;;;;;;26.15;51.35;95799.56;4990470;28;20419;-60
2021/08/13 02:47:34;;;;;;;14.50;13.25;;;;;;;26.38;51.67;95850.25;4989450;28;20031;-60
2021/08/13 02:50:05;;;;;;;14.68;12.90;;;;;;;26.35;51.62;95857.25;4990081;28;20047;-61
2021/08/13 02:52:42;;;;;;;13.57;12.20;;;;;;;26.27;51.83;95850.22;4990294;28;20085;-60
2021/08/13 02:55:11;;;;;;;14.13;12.30;;;;;;;26.27;51.96;95847.50;4990082;28;20392;-61
2021/08/13 02:57:38;;;;;;;12.07;11.18;;;;;;;26.23;51.97;95852.16;4974104;28;20057;-60
2021/08/13 03:00:05;;;;;;;13.00;11.95;;;;;;;26.11;51.89;95842.44;4990102;28;20066;-60
2021/08/13 03:02:32;;;;;;;13.20;11.93;;;;;;;26.11;52.19;95844.38;4989545;28;20046;-60
2021/08/13 03:05:00;;;;;;;13.07;11.98;;;;;;;26.12;51.80;95851.38;4989864;28;20038;-60
2021/08/13 03:07:27;;;;;;;15.18;11.70;;;;;;;26.06;51.83;95852.94;4972197;28;20050;-60
2021/08/13 03:09:53;;;;;;;12.90;11.73;;;;;;;26.10;51.84;95861.88;4991801;28;20069;-60
2021/08/13 03:12:19;;;;;;;12.68;10.85;;;;;;;26.03;51.52;95845.50;4989911;28;20038;-61
2021/08/13 03:14:46;;;;;;;11.73;10.45;;;;;;;26.01;51.64;95845.13;4989962;28;20186;-61
2021/08/13 03:17:12;;;;;;;11.95;10.95;;;;;;;26.05;51.61;95854.88;4988570;28;20035;-61
2021/08/13 03:19:38;;;;;;;13.45;12.05;;;;;;;26.08;51.33;95854.09;4989370;28;20373;-61
2021/08/13 03:22:04;;;;;;;13.10;11.98;;;;;;;26.06;51.29;95855.66;4974010;28;20029;-61
2021/08/13 03:24:30;;;;;;;12.65;11.40;;;;;;;26.08;51.40;95853.31;4989509;28;20034;-61
2021/08/13 03:26:56;;;;;;;12.23;11.13;;;;;;;26.01;51.45;95864.22;4989366;28;20038;-61
2021/08/13 03:29:21;;;;;;;13.05;11.60;;;;;;;26.00;51.20;95859.91;4989699;28;20516;-60
2021/08/13 03:31:46;;;;;;;12.63;11.60;;;;;;;26.02;51.36;95869.28;4989529;28;20515;-61
2021/08/13 03:34:16;;;;;;;12.93;11.73;;;;;;;25.93;51.36;95855.22;4988927;28;20030;-61
2021/08/13 03:36:42;;;;;;;12.75;11.55;;;;;;;25.89;51.81;95868.84;4973576;28;20058;-61
2021/08/13 03:39:10;;;;;;;13.45;12.27;;;;;;;25.89;51.65;95863.38;4989365;28;20054;-60
2021/08/13 03:41:36;;;;;;;13.13;11.93;;;;;;;25.79;51.70;95847.78;4989394;28;20053;-60
2021/08/13 03:44:02;;;;;;;12.32;11.25;;;;;;;25.88;51.85;95867.28;4989527;28;20601;-61
2021/08/13 03:46:27;;;;;;;13.45;11.68;;;;;;;25.89;51.47;95868.84;4988635;28;20377;-61
2021/08/13 03:48:52;;;;;;;11.95;10.95;;;;;;;25.82;51.84;95855.19;4990742;28;20030;-61
2021/08/13 03:51:18;;;;;;;12.70;11.63;;;;;;;25.83;51.44;95854.03;4988855;28;20042;-61
2021/08/13 03:53:44;;;;;;;11.50;10.52;;;;;;;25.89;51.55;95873.50;4971860;28;20150;-61
2021/08/13 03:56:09;;;;;;;13.60;12.40;;;;;;;25.88;51.47;95861.81;4971161;28;20046;-60
2021/08/13 03:58:35;;;;;;;11.68;10.77;;;;;;;25.80;51.73;95857.53;4989151;28;20129;-61
2021/08/13 04:01:00;;;;;;;13.02;11.18;;;;;;;25.78;51.59;95848.94;4991039;28;20023;-60
2021/08/13 04:03:26;;;;;;;11.82;10.50;;;;;;;25.87;51.29;95863.00;4988382;28;20053;-60
2021/08/13 04:05:51;;;;;;;11.95;10.80;;;;;;;26.01;51.25;95870.44;4988571;28;20488;-60
2021/08/13 04:08:16;;;;;;;10.52;9.50;;;;;;;26.10;51.15;95870.84;4988882;28;20041;-61
2021/08/13 04:10:42;;;;;;;10.95;10.02;;;;;;;26.10;50.82;95857.22;4989004;28;20033;-60
2021/08/13 04:13:07;;;;;;;13.13;11.23;;;;;;;26.27;50.53;95871.28;4989150;28;20084;-61
2021/08/13 04:15:33;;;;;;;11.23;10.27;;;;;;;26.27;50.34;95876.72;4990656;28;20428;-61
2021/08/13 04:17:59;;;;;;;10.05;9.23;;;;;;;26.14;50.23;95857.22;4988227;28;20660;-60
2021/08/13 04:20:24;;;;;;;12.48;9.38;;;;;;;26.37;49.99;95868.56;4988723;28;20157;-61
2021/08/13 04:22:49;;;;;;;11.73;10.20;;;;;;;26.46;49.69;95868.19;4988655;28;20030;-61
2021/08/13 04:25:15;;;;;;;10.68;9.63;;;;;;;26.65;49.38;95876.00;4988850;28;20436;-61
2021/08/13 04:27:40;;;;;;;10.35;9.35;;;;;;;26.72;48.73;95879.88;4990285;28;20465;-61
2021/08/13 04:30:06;;;;;;;9.85;8.95;;;;;;;26.87;48.65;95867.78;4988845;28;20039;-61
2021/08/13 04:32:32;;;;;;;10.25;9.25;;;;;;;27.07;48.29;95884.53;4985607;28;20039;-60
2021/08/13 04:34:58;;;;;;;9.32;8.50;;;;;;;27.27;47.26;95888.41;4969334;28;20185;-61
2021/08/13 04:37:24;;;;;;;10.18;9.27;;;;;;;27.48;47.55;95882.13;4986952;28;20038;-61
2021/08/13 04:39:49;;;;;;;10.02;9.02;;;;;;;27.52;47.41;95890.31;4990753;28;20022;-61
2021/08/13 04:42:14;;;;;;;9.23;8.18;;;;;;;27.60;47.24;95887.16;4988596;28;20489;-61
2021/08/13 04:44:40;;;;;;;9.07;8.27;;;;;;;27.67;47.12;95883.63;4988534;28;20035;-60
2021/08/13 04:47:05;;;;;;;11.30;8.20;;;;;;;27.66;47.01;95882.84;4988224;28;20396;-61
2021/08/13 04:49:32;;;;;;;9.88;8.30;;;;;;;27.80;46.25;95890.25;4987987;28;20042;-61
2021/08/13 04:51:58;;;;;;;9.43;8.65;;;;;;;27.93;46.37;95893.28;4990314;28;20113;-61
2021/08/13 04:54:23;;;;;;;8.38;7.50;;;;;;;28.14;46.08;95893.19;4988492;28;20142;-61
2021/08/13 04:56:48;;;;;;;8.52;7.82;;;;;;;28.33;45.37;95885.66;4988088;28;20488;-61
2021/08/13 04:59:14;;;;;;;8.85;8.15;;;;;;;28.56;45.36;95898.81;4970872;28;20062;-61
2021/08/13 05:01:39;;;;;;;9.20;8.10;;;;;;;28.56;44.80;95888.66;4988367;28;20089;-61
2021/08/13 05:04:06;;;;;;;9.63;8.63;;;;;;;28.76;44.76;95894.34;4992353;28;20423;-61
2021/08/13 05:06:32;;;;;;;9.05;8.35;;;;;;;28.83;44.78;95899.00;4991861;28;20042;-61
2021/08/13 05:08:57;;;;;;;8.43;7.55;;;;;;;28.85;44.59;95882.94;4991740;28;20038;-61
2021/08/13 05:11:23;;;;;;;9.20;8.30;;;;;;;28.94;44.69;95897.75;4992060;28;20049;-61
2021/08/13 05:13:48;;;;;;;10.27;8.25;;;;;;;29.13;44.09;95906.59;4992006;28;20460;-61
2021/08/13 05:16:13;;;;;;;11.38;8.20;;;;;;;29.07;44.05;95887.06;4973939;28;20026;-61
2021/08/13 05:18:38;;;;;;;12.05;8.38;;;;;;;29.27;44.07;95888.03;4993180;28;20507;-61
2021/08/13 05:21:06;;;;;;;9.50;8.40;;;;;;;29.31;44.03;95892.69;4991619;28;20400;-61
2021/08/13 05:23:31;;;;;;;9.60;8.73;;;;;;;29.15;43.81;95854.91;4974137;28;20039;-61
2021/08/13 05:26:00;;;;;;;10.13;8.25;;;;;;;29.45;44.09;95904.28;4990900;28;20419;-61
2021/08/13 05:28:26;;;;;;;9.95;8.50;;;;;;;29.46;43.76;95897.63;4991603;28;20031;-61
2021/08/13 05:30:52;;;;;;;9.00;8.10;;;;;;;29.58;43.90;95917.50;4993681;28;20026;-61
2021/08/13 05:33:17;;;;;;;8.27;7.30;;;;;;;29.51;43.64;95918.31;4991028;28;20389;-61
2021/08/13 05:35:42;;;;;;;8.57;7.78;;;;;;;29.60;43.58;95937.84;4990963;28;20042;-61
2021/08/13 05:38:08;;;;;;;10.18;8.70;;;;;;;28.82;45.08;95946.72;4991563;28;20038;-61
2021/08/13 05:40:33;;;;;;;12.20;8.50;;;;;;;29.19;44.46;95940.56;4991615;28;20034;-62
2021/08/13 05:42:59;;;;;;;9.98;7.35;;;;;;;28.37;45.72;95952.09;4975913;28;20121;-61
2021/08/13 05:45:26;;;;;;;10.48;7.63;;;;;;;28.88;45.79;95936.91;4991121;28;20089;-68
2021/08/13 05:47:51;;;;;;;8.93;7.97;;;;;;;28.98;45.51;95931.38;4973227;28;20078;-61
2021/08/13 05:50:17;;;;;;;8.35;7.55;;;;;;;27.95;48.06;95935.50;4991160;28;20151;-62
2021/08/13 05:52:44;;;;;;;8.35;7.35;;;;;;;28.27;47.69;95950.97;4987306;28;20038;-60
2021/08/13 05:55:10;;;;;;;13.13;8.25;;;;;;;27.72;48.83;95963.28;4973803;28;20031;-61
2021/08/13 05:57:36;;;;;;;9.85;6.97;;;;;;;27.31;48.41;95971.16;4973273;28;20027;-60
2021/08/13 06:00:01;;;;;;;9.73;6.70;;;;;;;27.48;48.04;95969.56;4971880;28;20041;-61
2021/08/13 06:02:27;;;;;;;6.70;6.00;;;;;;;27.96;46.53;95953.44;4971717;28;20043;-60
2021/08/13 06:04:55;;;;;;;10.63;5.70;;;;;;;26.62;46.82;95927.84;4988507;28;20059;-60
2021/08/13 06:07:20;;;;;;;6.90;5.80;;;;;;;27.35;45.90;95914.56;4990544;28;20031;-60
2021/08/13 06:09:46;;;;;;;5.47;4.72;;;;;;;26.60;46.07;95957.47;4992923;28;20033;-60
2021/08/13 06:12:11;;;;;;;8.15;4.90;;;;;;;26.38;47.09;95960.13;4991072;28;20042;-61
2021/08/13 06:14:37;;;;;;;7.65;4.97;;;;;;;26.99;46.40;95951.25;4990522;28;20041;-63
2021/08/13 06:17:03;;;;;;;9.13;5.07;;;;;;;27.30;46.33;95955.16;4990437;28;20575;-66
2021/08/13 06:19:28;;;;;;;7.45;5.10;;;;;;;27.45;45.95;95945.78;4968808;28;20051;-64
2021/08/13 06:21:53;;;;;;;7.32;5.40;;;;;;;27.62;45.92;95958.59;4975091;28;20381;-66
2021/08/13 06:24:19;;;;;;;8.27;5.82;;;;;;;27.86;45.75;95967.16;4990704;28;20385;-68
2021/08/13 06:26:44;;;;;;;5.85;5.35;;;;;;;27.98;46.17;95953.81;4990533;28;20428;-67
2021/08/13 06:29:09;;;;;;;6.72;5.90;;;;;;;28.05;45.91;95944.81;4990899;28;20038;-67
2021/08/13 06:31:35;;;;;;;8.10;6.45;;;;;;;28.17;45.69;95958.03;4973110;28;20047;-67
2021/08/13 06:34:00;;;;;;;10.30;6.30;;;;;;;28.24;45.74;95960.72;4991921;28;20034;-67
2021/08/13 06:36:25;;;;;;;10.52;6.50;;;;;;;28.40;45.75;95957.53;4989958;28;20050;-69
2021/08/13 06:38:51;;;;;;;8.75;6.40;;;;;;;28.54;45.56;95964.13;4990475;28;20564;-69
2021/08/13 06:41:16;;;;;;;6.55;5.85;;;;;;;28.56;45.41;95967.22;4990675;28;20043;-69
2021/08/13 06:43:41;;;;;;;6.10;5.50;;;;;;;28.71;44.79;95971.44;4990360;28;20035;-69
2021/08/13 06:46:07;;;;;;;6.72;6.00;;;;;;;28.82;44.58;95963.94;4990108;28;20022;-62
2021/08/13 06:48:32;;;;;;;8.15;6.18;;;;;;;29.11;44.33;95975.47;4991435;28;20030;-69
2021/08/13 06:50:57;;;;;;;7.95;6.40;;;;;;;29.34;44.18;95985.84;4990331;28;20600;-69
2021/08/13 06:53:23;;;;;;;9.38;5.90;;;;;;;29.52;44.15;95983.69;4990448;28;20068;-69
2021/08/13 06:55:48;;;;;;;8.93;6.85;;;;;;;29.70;43.99;95980.03;4989554;28;20074;-69
2021/08/13 06:58:13;;;;;;;10.85;6.72;;;;;;;29.89;43.82;95982.19;4990092;28;20022;-69
2021/08/13 07:00:39;;;;;;;12.00;6.72;;;;;;;30.05;43.66;95984.34;4974553;28;20106;-69
2021/08/13 07:03:04;;;;;;;6.28;5.68;;;;;;;30.18;43.74;95982.63;4989742;28;20099;-68
2021/08/13 07:05:29;;;;;;;8.07;5.90;;;;;;;30.26;43.53;95980.59;4979762;28;20062;-69
2021/08/13 07:07:55;;;;;;;8.98;5.90;;;;;;;30.49;43.41;95988.91;4989651;28;20085;-69
2021/08/13 07:10:20;;;;;;;6.53;5.93;;;;;;;30.68;43.71;95990.22;4990083;28;20031;-69
2021/08/13 07:12:46;;;;;;;12.27;6.50;;;;;;;30.80;43.62;95983.38;4991608;28;20389;-70
2021/08/13 07:15:12;;;;;;;9.15;6.32;;;;;;;30.92;43.56;95990.28;4989806;28;20046;-69
2021/08/13 07:17:38;;;;;;;6.80;6.20;;;;;;;31.08;43.49;95998.66;4989156;28;20068;-70
2021/08/13 07:20:04;;;;;;;7.03;6.32;;;;;;;31.21;43.27;96005.13;4988997;28;20062;-69
2021/08/13 07:22:32;;;;;;;9.27;6.60;;;;;;;31.29;43.16;95992.84;4989530;28;20061;-68
2021/08/13 07:24:57;;;;;;;7.53;6.05;;;;;;;31.44;43.36;96004.38;4991304;28;20436;-68
2021/08/13 07:27:23;;;;;;;7.47;6.32;;;;;;;31.58;43.22;96000.59;4988924;28;20038;-68
2021/08/13 07:29:48;;;;;;;9.75;6.72;;;;;;;31.67;42.25;96002.81;4989523;28;20484;-69
2021/08/13 07:32:13;;;;;;;7.93;6.00;;;;;;;31.80;42.13;96010.03;4989304;28;20454;-69
2021/08/13 07:34:39;;;;;;;8.20;6.47;;;;;;;31.91;42.80;96018.09;4988584;28;20519;-68
2021/08/13 07:37:04;;;;;;;6.78;6.18;;;;;;;31.98;42.21;96006.94;4990767;28;20373;-68
2021/08/13 07:39:29;;;;;;;8.02;6.32;;;;;;;32.11;42.43;96015.38;4972000;28;20520;-72
2021/08/13 07:41:55;;;;;;;9.88;7.20;;;;;;;32.25;41.92;96003.31;4989405;28;20043;-69
2021/08/13 07:44:20;;;;;;;6.90;6.32;;;;;;;32.42;41.32;96020.66;4989135;28;20644;-69
2021/08/13 07:46:45;;;;;;;8.45;6.65;;;;;;;32.56;41.36;96014.88;4988821;28;20092;-68
2021/08/13 07:49:11;;;;;;;7.40;6.68;;;;;;;32.76;40.79;96014.81;4988612;28;20033;-69
2021/08/13 07:51:36;;;;;;;7.45;6.30;;;;;;;32.87;41.01;96029.13;4990956;28;20484;-69
2021/08/13 07:54:02;;;;;;;6.82;6.22;;;;;;;32.65;40.58;96026.06;4988986;28;20412;-68
2021/08/13 07:56:27;;;;;;;7.10;6.40;;;;;;;32.67;40.28;96015.41;4988698;28;20042;-69
2021/08/13 07:58:52;;;;;;;7.38;6.32;;;;;;;31.49;42.65;96020.41;4989231;28;20125;-69
2021/08/13 08:01:17;;;;;;;6.45;5.85;;;;;;;32.39;41.23;96010.50;4989095;28;20428;-68
2021/08/13 08:03:43;;;;;;;6.78;6.00;;;;;;;32.66;40.75;96011.09;4972877;28;20412;-69
2021/08/13 08:06:08;;;;;;;7.10;6.40;;;;;;;32.47;40.43;96020.94;4988364;28;20038;-69
2021/08/13 08:08:34;;;;;;;8.85;6.30;;;;;;;31.09;43.15;96018.69;4971302;28;20046;-69
2021/08/13 08:10:59;;;;;;;13.00;7.18;;;;;;;31.89;41.67;96016.97;4989070;28;20037;-71
2021/08/13 08:13:25;;;;;;;6.85;5.85;;;;;;;30.94;43.33;96009.88;4988800;28;20096;-70
2021/08/13 08:15:50;;;;;;;6.20;5.63;;;;;;;31.84;40.82;96018.25;4990478;28;20030;-69
2021/08/13 08:18:19;;;;;;;6.20;5.60;;;;;;;31.53;41.42;96006.56;4988746;28;20031;-66
2021/08/13 08:20:45;;;;;;;6.47;4.80;;;;;;;32.15;41.45;96018.06;4988780;28;20062;-68
2021/08/13 08:23:10;;;;;;;5.65;5.05;;;;;;;32.87;39.31;96015.34;4988838;28;20093;-69
2021/08/13 08:25:36;;;;;;;8.25;5.55;;;;;;;33.22;39.26;96021.25;4988480;28;20041;-66
2021/08/13 08:28:01;;;;;;;6.30;5.63;;;;;;;33.47;38.15;96020.66;4990654;28;20026;-67
2021/08/13 08:30:27;;;;;;;6.38;5.80;;;;;;;33.47;39.12;96015.91;4988967;28;20125;-67
2021/08/13 08:32:52;;;;;;;8.15;5.45;;;;;;;32.60;38.89;96026.56;4988651;28;20488;-64
2021/08/13 08:35:17;;;;;;;6.57;5.15;;;;;;;33.07;38.78;96010.59;4988107;28;20602;-64
2021/08/13 08:38:01;;;;;;;5.50;5.00;;;;;;;33.37;38.62;96022.44;4990064;28;20517;-64
2021/08/13 08:40:29;;;;;;;6.03;4.88;;;;;;;33.11;37.89;96011.25;4992538;28;20139;-68
2021/08/13 08:42:58;;;;;;;8.80;4.70;;;;;;;32.22;38.45;96029.69;4977074;28;20027;-68
2021/08/13 08:45:25;;;;;;;9.98;5.10;;;;;;;31.75;39.64;96020.75;4992386;28;20038;-69
2021/08/13 08:47:53;;;;;;;7.60;4.80;;;;;;;31.12;39.21;96035.13;4992046;28;20030;-68
2021/08/13 08:50:21;;;;;;;5.68;5.05;;;;;;;31.55;38.63;96020.69;4991835;28;20497;-67
2021/08/13 08:52:48;;;;;;;8.02;4.85;;;;;;;32.38;37.27;96015.22;4981132;28;20119;-68
2021/08/13 08:55:14;;;;;;;5.28;4.78;;;;;;;31.38;38.23;96019.00;4992371;28;20404;-68
2021/08/13 08:57:40;;;;;;;5.90;4.90;;;;;;;31.61;38.48;96001.72;4976371;28;20113;-68
2021/08/13 09:00:08;;;;;;;8.63;4.95;;;;;;;32.26;37.85;96021.38;4992283;28;20039;-68
2021/08/13 09:02:34;;;;;;;5.63;5.03;;;;;;;32.64;36.66;96020.97;4992094;28;20045;-68
2021/08/13 09:05:00;;;;;;;5.05;4.57;;;;;;;32.70;36.35;96003.50;4991595;28;20054;-67
2021/08/13 09:07:26;;;;;;;5.30;4.72;;;;;;;32.31;36.55;96024.41;4991599;28;20034;-68
2021/08/13 09:09:52;;;;;;;5.53;4.90;;;;;;;31.98;37.58;96017.97;4993982;28;20556;-68
2021/08/13 09:12:18;;;;;;;7.65;4.85;;;;;;;32.30;36.73;96013.81;4991976;28;20046;-68
2021/08/13 09:14:43;;;;;;;8.77;4.60;;;;;;;31.30;37.75;96012.88;4991883;28;20516;-68
2021/08/13 09:17:09;;;;;;;5.85;4.65;;;;;;;32.41;36.91;96016.38;4991467;28;20045;-67
2021/08/13 09:19:49;;;;;;;5.97;4.80;;;;;;;33.22;35.51;96015.72;4991149;28;20043;-68
2021/08/13 09:22:19;;;;;;;6.50;4.30;;;;;;;33.08;35.30;96014.13;4991538;28;20031;-68
2021/08/13 09:24:51;;;;;;;6.10;4.47;;;;;;;32.85;35.96;96023.25;4993565;28;20030;-68
2021/08/13 09:27:21;;;;;;;6.82;4.60;;;;;;;32.74;34.74;96031.00;4991244;28;20133;-68
2021/08/13 09:30:07;;;;;;;4.47;4.07;;;;;;;32.81;33.44;96025.31;4991649;28;20515;-70
2021/08/13 09:32:33;;;;;;;4.40;4.00;;;;;;;32.55;35.09;96016.03;4991651;28;20034;-70
2021/08/13 09:34:58;;;;;;;4.65;3.65;;;;;;;33.48;32.20;96011.97;4990875;28;20053;-71
2021/08/13 09:37:24;;;;;;;7.10;4.60;;;;;;;34.14;33.32;96010.63;4990878;28;20018;-70
2021/08/13 09:39:54;;;;;;;4.63;4.22;;;;;;;34.26;33.28;96008.34;4993467;28;20489;-70
2021/08/13 09:42:20;;;;;;;5.97;4.30;;;;;;;32.70;34.42;96025.56;4991402;28;20039;-70
2021/08/13 09:44:59;;;;;;;5.50;3.65;;;;;;;32.92;31.32;96011.34;4973898;28;20042;-71
2021/08/13 09:47:37;;;;;;;4.97;3.83;;;;;;;34.30;32.58;96012.56;4991127;28;20038;-71
2021/08/13 09:50:03;;;;;;;5.72;4.55;;;;;;;34.38;32.48;96004.81;4990235;28;20501;-71
2021/08/13 09:52:29;;;;;;;4.50;3.95;;;;;;;34.95;31.80;95999.63;4981327;28;20027;-70
2021/08/13 09:55:12;;;;;;;3.85;3.58;;;;;;;35.07;32.42;96007.91;4993220;28;20153;-70
2021/08/13 09:57:45;;;;;;;9.13;4.28;;;;;;;34.49;33.50;96005.31;4991114;28;20030;-67
2021/08/13 10:00:13;;;;;;;5.18;4.00;;;;;;;34.91;32.98;96021.84;4989959;28;20049;-75
2021/08/13 10:02:39;;;;;;;9.35;4.38;;;;;;;35.37;32.76;96014.84;4990071;28;20077;-70
2021/08/13 10:05:18;;;;;;;5.70;4.35;;;;;;;35.35;32.26;96008.19;4990415;28;20061;-71
2021/08/13 10:07:45;;;;;;;5.95;4.32;;;;;;;35.59;32.70;96005.84;4990461;28;20039;-71
2021/08/13 10:10:11;;;;;;;5.72;4.00;;;;;;;35.72;31.64;96014.88;4990780;28;20031;-70
2021/08/13 10:12:44;;;;;;;4.53;3.60;;;;;;;34.71;33.29;96015.75;4992876;28;20025;-72
2021/08/13 10:15:10;;;;;;;10.25;4.35;;;;;;;35.38;32.16;96027.47;4991160;28;20041;-71
2021/08/13 10:17:37;;;;;;;5.57;4.00;;;;;;;35.29;31.77;96021.81;4990406;28;20054;-64
2021/08/13 10:20:03;;;;;;;6.55;3.40;;;;;;;34.11;30.92;96007.97;4989985;28;20039;-65
2021/08/13 10:22:28;;;;;;;6.95;4.38;;;;;;;34.97;31.71;96022.84;4990608;28;20196;-66
2021/08/13 10:24:54;;;;;;;6.78;3.83;;;;;;;34.77;30.49;96006.47;4992832;28;20027;-70
2021/08/13 10:27:20;;;;;;;8.45;3.28;;;;;;;33.17;32.62;96024.53;4990017;28;20038;-70
2021/08/13 10:29:47;;;;;;;6.00;3.58;;;;;;;33.62;31.13;96011.59;4973399;28;20400;-71
2021/08/13 10:32:22;;;;;;;4.22;3.50;;;;;;;35.11;30.23;96013.31;4990629;28;20045;-69
2021/08/13 10:34:47;;;;;;;4.95;3.40;;;;;;;33.83;31.26;96001.19;4990025;28;20038;-72
2021/08/13 10:37:14;;;;;;;3.55;3.22;;;;;;;34.19;30.66;96014.06;4990161;28;20491;-81
2021/08/13 10:39:41;;;;;;;5.63;3.08;;;;;;;35.58;29.67;95996.78;4993101;28;20113;-78
2021/08/13 10:42:08;;;;;;;3.85;3.50;;;;;;;35.21;29.17;96003.13;4990499;28;20552;-71
2021/08/13 10:44:42;;;;;;;3.70;3.25;;;;;;;35.45;29.30;96007.09;4990650;28;20047;-70
2021/08/13 10:47:12;;;;;;;4.88;3.00;;;;;;;36.10;29.16;95991.84;4989879;28;20030;-71
2021/08/13 10:49:39;;;;;;;5.28;3.83;;;;;;;36.41;28.86;96014.03;4989681;28;20093;-70
2021/08/13 10:52:07;;;;;;;3.22;2.90;;;;;;;36.57;28.67;96019.41;4992055;28;20033;-70
2021/08/13 10:54:41;;;;;;;3.50;3.20;;;;;;;32.87;31.79;96018.13;4990395;28;20378;-64
2021/08/13 10:57:14;;;;;;;4.25;3.40;;;;;;;33.94;30.63;95974.13;4972139;28;20042;-64
2021/08/13 10:59:40;;;;;;;8.70;3.92;;;;;;;34.29;30.85;95979.84;4986812;28;20051;-65
2021/08/13 11:02:16;;;;;;;8.60;3.40;;;;;;;33.51;31.52;95978.00;4971783;28;20224;-64
2021/08/13 11:04:43;;;;;;;6.90;3.80;;;;;;;34.28;30.46;96003.16;4989319;28;20054;-64
2021/08/13 11:07:09;;;;;;;6.13;4.20;;;;;;;34.92;30.28;96007.56;4989475;28;20053;-65
2021/08/13 11:09:36;;;;;;;4.65;3.80;;;;;;;35.76;29.79;96000.94;4991755;28;20023;-65
2021/08/13 11:12:05;;;;;;;3.50;3.20;;;;;;;35.24;29.48;95999.50;4989900;28;20045;-65
2021/08/13 11:14:45;;;;;;;5.10;3.42;;;;;;;35.04;30.72;95964.56;4989496;28;20405;-65
2021/08/13 11:17:31;;;;;;;3.63;3.15;;;;;;;35.53;29.63;95950.31;4989229;28;20550;-65
2021/08/13 11:19:59;;;;;;;6.32;3.60;;;;;;;34.62;30.00;95995.06;4988822;28;20101;-65
2021/08/13 11:22:29;;;;;;;3.58;2.88;;;;;;;34.50;30.76;95993.06;4989365;28;20026;-65
2021/08/13 11:24:55;;;;;;;4.13;3.67;;;;;;;35.25;29.11;95959.53;4991425;28;20104;-65
2021/08/13 11:27:20;;;;;;;6.05;3.13;;;;;;;35.31;29.31;95988.94;4989031;28;20317;-65